Elazig, Turkey
Current Conditions -  °F | °C
As of 9:50 PM on Friday 19 Dec 2014 (Local Time) from LTCA Reporting Station
Light Rain Light Rain  
Wind Chill:   Ceiling: 3000
Heat Index:   Visibility: 6mi
Dew Point:   Wind: 6mph
Humidity: 81%   Direction: 50°NE
Pressure: 30.18"   Gusts: NA
Location:  38.68°N, 39.23°E
Report Text: LTCA 191950Z 05005KT 9999 -RA SCT020 BKN030 OVC090 06/03 Q1022 NOSIG
Loading
Personal Weather Stations






























Interactive Weather Map New forecast layout! Learn more

10-Day Weather Forecast

Advertisements
Track Severe Weather on mobile